ZSPD/PVG METAR and TAF weather

Enter ICAO airport designator
Station Type Date Time Source
ZSPD METAR 2021/01/17 19:30 UTC NOAA

ZSPD 171930Z 21001MPS CAVOK M02/M04 Q1027 NOSIG


Station Type Date Time Source
ZSPD Decoded METAR 2021/01/17 19:30 UTC NOAA

Shanghai / Pudong, China (ZSPD) 31-07N 121-46E
Jan 17, 2021 - 02:30 PM EST / 2021.01.17 1930 UTC
Wind: from the SSW (210 degrees) at 2 MPH (2 KT):0
Visibility: greater than 7 mile(s):0
Temperature: 28 F (-2 C)
Dew Point: 24 F (-4 C)
Relative Humidity: 86%
Pressure (altimeter): 30.33 in. Hg (1027 hPa)
ob: ZSPD 171930Z 21001MPS CAVOK M02/M04 Q1027 NOSIG
cycle: 19

Station Type Date Time Source
ZSPD TAF 2021/01/17 18:03 UTC NOAA

TAF ZSPD 171501Z 1718/1818 19004MPS 6000 SCT030 TX10/1806Z TN00/1721Z
BECMG 1810/1811 07004MPS

Example: see airport list